createdAt,value
2019-01-04T00:01:35.784Z,-3.59
2019-01-04T00:04:08.978Z,-4.03
2019-01-04T00:06:39.589Z,-3.65
2019-01-04T00:09:10.456Z,-3.68
2019-01-04T00:11:41.174Z,-3.79
2019-01-04T00:14:11.458Z,-3.89
2019-01-04T00:16:42.444Z,-3.87
2019-01-04T00:19:13.099Z,-3.59
2019-01-04T00:21:43.432Z,-3.74
2019-01-04T00:24:14.055Z,-3.77
2019-01-04T00:26:44.660Z,-3.80
2019-01-04T00:29:15.423Z,-3.55
2019-01-04T00:31:46.034Z,-3.81
2019-01-04T00:34:16.312Z,-3.88
2019-01-04T00:36:47.179Z,-4.06
2019-01-04T00:39:17.694Z,-3.91
2019-01-04T00:41:48.456Z,-4.04
2019-01-04T00:44:19.213Z,-4.09
2019-01-04T00:46:50.217Z,-4.28
2019-01-04T00:49:20.483Z,-4.14
2019-01-04T00:51:51.098Z,-4.16
2019-01-04T00:54:21.468Z,-4.23
2019-01-04T00:57:22.956Z,-4.18
2019-01-04T01:00:30.105Z,-4.25
2019-01-04T01:03:44.403Z,-4.26
2019-01-04T01:06:47.273Z,-4.30
2019-01-04T01:10:06.807Z,-3.97
2019-01-04T01:13:17.424Z,-4.14
2019-01-04T01:16:27.566Z,-4.17
2019-01-04T01:19:34.324Z,-4.12
2019-01-04T01:22:44.341Z,-4.04
2019-01-04T01:26:00.332Z,-3.99
2019-01-04T01:29:16.960Z,-3.98
2019-01-04T01:32:22.768Z,-3.93
2019-01-04T01:35:39.782Z,-4.16
2019-01-04T01:39:09.151Z,-3.90
2019-01-04T01:42:18.178Z,-4.16
2019-01-04T01:45:31.649Z,-3.92
2019-01-04T01:48:36.068Z,-4.15
2019-01-04T01:51:31.648Z,-3.99
2019-01-04T01:54:01.925Z,-3.90
2019-01-04T01:56:32.523Z,-4.09
2019-01-04T01:59:03.306Z,-4.23
2019-01-04T02:01:33.654Z,-4.15
2019-01-04T02:04:04.465Z,-3.96
2019-01-04T02:06:35.175Z,-4.04
2019-01-04T02:09:08.766Z,-4.07
2019-01-04T02:11:39.300Z,-4.11
2019-01-04T02:14:09.804Z,-4.22
2019-01-04T02:16:40.763Z,-4.06
2019-01-04T02:19:11.410Z,-3.79
2019-01-04T02:21:41.668Z,-4.09
2019-01-04T02:24:12.281Z,-4.03
2019-01-04T02:26:43.101Z,-3.84
2019-01-04T02:29:13.747Z,-4.02
2019-01-04T02:31:44.147Z,-4.22
2019-01-04T02:34:15.075Z,-4.17
2019-01-04T02:36:45.362Z,-4.33
2019-01-04T02:39:16.014Z,-4.32
2019-01-04T02:41:46.686Z,-4.33
2019-01-04T02:44:18.415Z,-4.24
2019-01-04T02:46:49.086Z,-4.54
2019-01-04T02:49:19.609Z,-4.47
2019-01-04T02:51:49.954Z,-4.50
2019-01-04T02:54:20.588Z,-4.73
2019-01-04T02:56:50.882Z,-4.67
2019-01-04T02:59:21.684Z,-4.64
2019-01-04T03:01:52.456Z,-4.60
2019-01-04T03:04:23.045Z,-4.66
2019-01-04T03:06:53.437Z,-4.47
2019-01-04T03:09:24.275Z,-4.76
2019-01-04T03:11:54.709Z,-4.53
2019-01-04T03:14:25.031Z,-4.46
2019-01-04T03:16:55.628Z,-4.41
2019-01-04T03:19:26.027Z,-4.64
2019-01-04T03:21:56.308Z,-4.61
2019-01-04T03:24:26.861Z,-4.63
2019-01-04T03:26:57.654Z,-4.60
2019-01-04T03:29:28.351Z,-4.77
2019-01-04T03:31:58.737Z,-4.71
2019-01-04T03:34:29.147Z,-4.52
2019-01-04T03:36:59.727Z,-4.56
2019-01-04T03:39:30.036Z,-4.82
2019-01-04T03:42:00.973Z,-4.65
2019-01-04T03:44:31.347Z,-4.55
2019-01-04T03:47:01.706Z,-4.48
2019-01-04T03:49:32.311Z,-4.62
2019-01-04T03:52:03.049Z,-4.81
2019-01-04T03:54:33.801Z,-4.70
2019-01-04T03:57:04.087Z,-4.94
2019-01-04T03:59:34.907Z,-4.77
2019-01-04T04:02:05.613Z,-4.76
2019-01-04T04:04:36.168Z,-4.82
2019-01-04T04:07:06.442Z,-4.71
2019-01-04T04:09:36.997Z,-4.86
2019-01-04T04:12:07.360Z,-4.91
2019-01-04T04:14:37.993Z,-4.92
2019-01-04T04:17:08.655Z,-4.87
2019-01-04T04:19:39.498Z,-4.89
2019-01-04T04:22:09.848Z,-4.91
2019-01-04T04:24:40.424Z,-4.93
2019-01-04T04:27:10.752Z,-4.78
2019-01-04T04:29:41.722Z,-4.66
2019-01-04T04:32:12.210Z,-4.60
2019-01-04T04:34:42.758Z,-4.84
2019-01-04T04:37:13.411Z,-4.78
2019-01-04T04:39:44.311Z,-4.96
2019-01-04T04:42:14.600Z,-4.78
2019-01-04T04:44:45.492Z,-4.51
2019-01-04T04:47:16.141Z,-4.89
2019-01-04T04:49:46.597Z,-4.77
2019-01-04T04:52:16.933Z,-4.80
2019-01-04T04:54:47.373Z,-4.71
2019-01-04T04:57:18.055Z,-5.09
2019-01-04T04:59:48.876Z,-4.82
2019-01-04T05:02:19.149Z,-4.90
2019-01-04T05:04:49.931Z,-4.94
2019-01-04T05:07:20.599Z,-6.94
2019-01-04T05:09:50.919Z,-4.88
2019-01-04T05:12:21.440Z,-4.69
2019-01-04T05:14:52.016Z,-4.61
2019-01-04T05:17:22.294Z,-4.72
2019-01-04T05:19:52.600Z,-4.93
2019-01-04T05:22:23.219Z,-4.80
2019-01-04T05:24:53.524Z,-4.83
2019-01-04T05:27:24.186Z,-5.02
2019-01-04T05:29:54.938Z,-4.89
2019-01-04T05:32:25.734Z,-4.72
2019-01-04T05:34:56.034Z,-4.65
2019-01-04T05:37:26.942Z,-4.53
2019-01-04T05:39:57.565Z,-4.77
2019-01-04T05:42:27.962Z,-4.59
2019-01-04T05:44:58.657Z,-4.57
2019-01-04T05:47:29.142Z,-4.51
2019-01-04T05:49:59.508Z,-4.62
2019-01-04T05:52:29.983Z,-4.97
2019-01-04T05:55:00.642Z,-4.93
2019-01-04T05:57:30.927Z,-4.99
2019-01-04T06:00:02.059Z,-5.19
2019-01-04T06:02:32.545Z,-5.04
2019-01-04T06:05:03.096Z,-5.23
2019-01-04T06:07:34.323Z,-5.29
2019-01-04T06:10:04.822Z,-5.03
2019-01-04T06:12:35.402Z,-5.33
2019-01-04T06:15:06.425Z,-5.14
2019-01-04T06:17:37.034Z,-7.10
2019-01-04T06:20:07.414Z,-4.95
2019-01-04T06:22:38.204Z,-4.81
2019-01-04T06:25:09.495Z,-4.83
2019-01-04T06:27:40.068Z,-4.84
2019-01-04T06:30:10.833Z,-4.54
2019-01-04T06:32:41.741Z,-4.75
2019-01-04T06:35:12.432Z,-4.52
2019-01-04T06:37:42.904Z,-4.54
2019-01-04T06:40:13.493Z,-4.57
2019-01-04T06:42:44.453Z,-4.60
2019-01-04T06:45:14.744Z,-4.92
2019-01-04T06:47:46.923Z,-4.74
2019-01-04T06:50:17.311Z,-4.58
2019-01-04T06:52:48.027Z,-4.33
2019-01-04T06:55:49.351Z,-4.26
2019-01-04T06:58:20.057Z,-4.09
2019-01-04T07:00:50.544Z,-3.92
2019-01-04T07:03:21.445Z,-4.02
2019-01-04T07:05:51.818Z,-4.35
2019-01-04T07:08:22.455Z,-4.26
2019-01-04T07:10:53.309Z,-4.27
2019-01-04T07:13:23.870Z,-4.14
2019-01-04T07:15:54.146Z,-4.38
2019-01-04T07:18:24.891Z,-4.42
2019-01-04T07:20:55.375Z,-4.19
2019-01-04T07:23:25.925Z,-4.15
2019-01-04T07:25:56.582Z,-4.02
2019-01-04T07:28:27.283Z,-3.91
2019-01-04T07:30:57.586Z,-4.29
2019-01-04T07:33:28.505Z,-4.26
2019-01-04T07:35:58.911Z,-4.02
2019-01-04T07:38:29.754Z,-3.90
2019-01-04T07:41:01.528Z,-4.16
2019-01-04T07:43:32.307Z,-4.21
2019-01-04T07:46:02.926Z,-4.42
2019-01-04T07:48:33.433Z,-4.16
2019-01-04T07:51:03.792Z,-4.29
2019-01-04T07:53:34.376Z,-3.98
2019-01-04T07:56:05.101Z,-3.83
2019-01-04T07:58:35.723Z,-3.97
2019-01-04T08:01:06.065Z,-3.86
2019-01-04T08:03:36.926Z,-3.96
2019-01-04T08:06:08.181Z,-3.59
2019-01-04T08:08:38.807Z,-3.30
2019-01-04T08:11:09.217Z,-3.14
2019-01-04T08:13:39.841Z,-3.63
2019-01-04T08:16:10.257Z,-3.32
2019-01-04T08:18:40.657Z,-3.63
2019-01-04T08:21:11.027Z,-3.11
2019-01-04T08:23:41.930Z,-3.32
2019-01-04T08:26:12.209Z,-3.31
2019-01-04T08:28:42.600Z,-3.60
2019-01-04T08:31:13.735Z,-3.72
2019-01-04T08:33:44.975Z,-3.76
2019-01-04T08:36:15.272Z,-4.02
2019-01-04T08:38:46.269Z,-3.76
2019-01-04T08:41:16.677Z,-3.38
2019-01-04T08:43:47.321Z,-3.50
2019-01-04T08:46:18.049Z,-3.62
2019-01-04T08:48:48.325Z,-3.44
2019-01-04T08:51:18.999Z,-3.24
2019-01-04T08:54:17.910Z,-2.67
2019-01-04T08:56:48.232Z,-2.76
2019-01-04T08:59:18.881Z,-3.11
2019-01-04T09:01:49.762Z,-2.91
2019-01-04T09:04:20.041Z,-3.23
2019-01-04T09:06:50.553Z,-2.56
2019-01-04T09:09:21.098Z,-2.46
2019-01-04T09:11:51.428Z,-2.18
2019-01-04T09:14:21.950Z,-1.93
2019-01-04T09:16:52.350Z,-2.01
2019-01-04T09:19:23.250Z,-1.82
2019-01-04T09:21:53.792Z,-2.09
2019-01-04T09:24:24.138Z,-2.06
2019-01-04T09:26:54.816Z,-1.72
2019-01-04T09:29:25.417Z,-2.03
2019-01-04T09:31:56.025Z,-1.64
2019-01-04T09:34:26.780Z,-1.44
2019-01-04T09:36:57.801Z,-1.69
2019-01-04T09:39:29.891Z,-1.96
2019-01-04T09:42:20.492Z,-1.57
2019-01-04T09:44:51.233Z,-1.94
2019-01-04T09:47:21.846Z,-2.11
2019-01-04T09:49:52.179Z,-2.30
2019-01-04T09:52:23.159Z,-1.99
2019-01-04T09:54:53.546Z,-1.63
2019-01-04T09:57:23.977Z,-1.36
2019-01-04T09:59:54.630Z,-1.56
2019-01-04T10:02:25.321Z,-1.32
2019-01-04T10:04:55.640Z,-1.05
2019-01-04T10:07:26.601Z,-1.20
2019-01-04T10:09:56.947Z,-0.80
2019-01-04T10:12:28.254Z,-0.87
2019-01-04T10:14:59.546Z,-0.99
2019-01-04T10:17:30.255Z,-0.86
2019-01-04T10:20:00.798Z,-0.79
2019-01-04T10:22:31.702Z,-0.94
2019-01-04T10:25:02.007Z,-0.96
2019-01-04T10:27:33.096Z,-0.77
2019-01-04T10:30:04.044Z,-0.68
2019-01-04T10:32:34.641Z,-0.57
2019-01-04T10:35:10.511Z,-0.31
2019-01-04T10:37:40.181Z,-0.17
2019-01-04T10:40:11.142Z,0.09
2019-01-04T10:42:42.076Z,-0.03
2019-01-04T10:45:12.861Z,0.40
2019-01-04T10:47:43.190Z,0.29
2019-01-04T10:50:13.726Z,0.83
2019-01-04T10:52:44.187Z,0.77
2019-01-04T10:55:14.682Z,0.62
2019-01-04T10:57:45.751Z,1.09
2019-01-04T11:00:16.196Z,1.30
2019-01-04T11:02:46.727Z,1.56
2019-01-04T11:05:17.403Z,1.87
2019-01-04T11:07:47.730Z,2.04
2019-01-04T11:10:18.005Z,2.18
2019-01-04T11:12:48.566Z,2.36
2019-01-04T11:15:18.836Z,2.43
2019-01-04T11:17:49.524Z,2.70
2019-01-04T11:20:51.417Z,2.45
2019-01-04T11:24:18.015Z,2.16
2019-01-04T11:27:08.826Z,1.57
2019-01-04T11:29:57.582Z,0.94
2019-01-04T11:33:10.882Z,0.49
2019-01-04T11:36:16.347Z,-0.24
2019-01-04T11:39:13.078Z,-0.40
2019-01-04T11:42:26.754Z,-0.72
2019-01-04T11:45:23.036Z,-1.12
2019-01-04T11:48:32.215Z,-1.44
2019-01-04T11:51:12.194Z,-1.24
2019-01-04T11:53:43.075Z,-0.81
2019-01-04T11:56:13.530Z,-1.55
2019-01-04T11:58:44.115Z,-1.34
2019-01-04T12:01:14.400Z,-1.66
2019-01-04T12:04:02.117Z,-1.41
2019-01-04T12:06:32.701Z,-1.25
2019-01-04T12:09:03.257Z,-1.09
2019-01-04T12:11:33.534Z,-1.39
2019-01-04T12:14:04.646Z,-1.33
2019-01-04T12:16:35.226Z,-1.69
2019-01-04T12:19:05.841Z,-1.97
2019-01-04T12:21:36.503Z,-2.34
2019-01-04T12:24:08.653Z,-2.19
2019-01-04T12:26:38.942Z,-1.93
2019-01-04T12:29:09.698Z,-2.00
2019-01-04T12:31:40.058Z,-1.71
2019-01-04T12:34:16.498Z,-1.86
2019-01-04T12:36:43.213Z,-1.67
2019-01-04T12:39:13.491Z,-1.74
2019-01-04T12:41:44.111Z,-1.99
2019-01-04T12:44:15.000Z,-1.91
2019-01-04T12:46:45.310Z,-1.65
2019-01-04T12:49:15.825Z,-1.75
2019-01-04T12:51:46.567Z,-1.85
2019-01-04T12:54:16.940Z,-1.66
2019-01-04T12:56:47.251Z,-1.66
2019-01-04T12:59:18.173Z,-1.73
2019-01-04T13:01:48.460Z,-1.93
2019-01-04T13:04:19.174Z,-1.74
2019-01-04T13:06:49.467Z,-1.72
2019-01-04T13:09:19.843Z,-1.91
2019-01-04T13:11:50.476Z,-1.96
2019-01-04T13:14:21.259Z,-2.11
2019-01-04T13:16:51.972Z,-2.15
2019-01-04T13:19:25.789Z,-1.89
2019-01-04T13:21:54.898Z,-2.13
2019-01-04T13:24:25.178Z,-2.11
2019-01-04T13:26:55.899Z,-2.12
2019-01-04T13:29:26.689Z,-2.03
2019-01-04T13:31:56.968Z,-1.92
2019-01-04T13:34:27.683Z,-2.31
2019-01-04T13:36:58.028Z,-2.22
2019-01-04T13:39:28.646Z,-1.98
2019-01-04T13:41:59.172Z,-1.65
2019-01-04T13:44:29.887Z,-1.56
2019-01-04T13:47:00.456Z,-1.81
2019-01-04T13:49:30.915Z,-1.93
2019-01-04T13:52:01.477Z,-1.87
2019-01-04T13:54:32.162Z,-1.96
2019-01-04T13:57:02.931Z,-1.77
2019-01-04T13:59:33.335Z,-2.02
2019-01-04T14:02:04.096Z,-1.90
2019-01-04T14:04:34.455Z,-2.12
2019-01-04T14:07:04.819Z,-2.16
2019-01-04T14:09:35.150Z,-1.98
2019-01-04T14:12:05.769Z,-1.94
2019-01-04T14:14:36.435Z,-2.36
2019-01-04T14:17:06.888Z,-2.21
2019-01-04T14:19:37.551Z,-2.09
2019-01-04T14:22:08.148Z,-2.21
2019-01-04T14:24:38.442Z,-2.16
2019-01-04T14:27:09.051Z,-2.23
2019-01-04T14:29:39.694Z,-2.17
2019-01-04T14:32:10.095Z,-2.05
2019-01-04T14:34:40.831Z,-2.13
2019-01-04T14:37:11.238Z,-2.25
2019-01-04T14:39:41.583Z,-2.26
2019-01-04T14:42:11.873Z,-2.52
2019-01-04T14:44:42.632Z,-2.44
2019-01-04T14:47:13.039Z,-2.49
2019-01-04T14:49:43.646Z,-2.50
2019-01-04T14:52:14.514Z,-2.69
2019-01-04T14:54:45.274Z,-2.87
2019-01-04T14:57:15.882Z,-2.86
2019-01-04T14:59:46.398Z,-2.87
2019-01-04T15:02:17.127Z,-2.64
2019-01-04T15:04:47.505Z,-2.62
2019-01-04T15:07:18.157Z,-2.56
2019-01-04T15:09:48.496Z,-2.24
2019-01-04T15:12:18.798Z,-2.37
2019-01-04T15:14:49.613Z,-2.56
2019-01-04T15:17:20.131Z,-2.54
2019-01-04T15:19:50.431Z,-2.62
2019-01-04T15:22:21.328Z,-2.58
2019-01-04T15:24:52.038Z,-2.18
2019-01-04T15:27:22.349Z,-2.35
2019-01-04T15:29:53.072Z,-2.23
2019-01-04T15:32:23.838Z,-2.21
2019-01-04T15:34:54.112Z,-2.16
2019-01-04T15:37:24.431Z,-2.11
2019-01-04T15:39:55.281Z,-2.28
2019-01-04T15:42:25.567Z,-4.18
2019-01-04T15:44:56.195Z,-2.23
2019-01-04T15:47:26.601Z,-2.39
2019-01-04T15:49:57.030Z,-2.59
2019-01-04T15:52:27.932Z,-2.30
2019-01-04T15:54:58.294Z,-2.36
2019-01-04T15:57:28.606Z,-2.23
2019-01-04T15:59:59.509Z,-2.05
2019-01-04T16:02:29.809Z,-2.05
2019-01-04T16:05:00.136Z,-2.14
2019-01-04T16:07:30.902Z,-2.25
2019-01-04T16:10:01.514Z,-2.09
2019-01-04T16:12:31.896Z,-2.04
2019-01-04T16:15:03.038Z,-2.08
2019-01-04T16:17:33.351Z,-2.06
2019-01-04T16:20:04.212Z,-2.30
2019-01-04T16:22:34.899Z,-1.96
2019-01-04T16:25:05.733Z,-2.15
2019-01-04T16:27:36.412Z,-2.11
2019-01-04T16:30:08.934Z,-1.88
2019-01-04T16:32:39.247Z,-1.80
2019-01-04T16:35:09.661Z,-1.75
2019-01-04T16:37:40.370Z,-1.96
2019-01-04T16:40:10.847Z,-4.30
2019-01-04T16:42:41.455Z,-2.40
2019-01-04T16:45:12.530Z,-2.53
2019-01-04T16:47:42.868Z,-2.84
2019-01-04T16:50:13.305Z,-2.98
2019-01-04T16:52:43.667Z,-3.06
2019-01-04T16:55:14.314Z,-3.21
2019-01-04T16:57:44.912Z,-3.03
2019-01-04T17:00:15.415Z,-3.08
2019-01-04T17:02:46.082Z,-2.90
2019-01-04T17:05:16.559Z,-2.74
2019-01-04T17:07:47.200Z,-2.61
2019-01-04T17:10:17.615Z,-2.66
2019-01-04T17:12:49.661Z,-2.74
2019-01-04T17:15:20.345Z,-2.76
2019-01-04T17:17:50.659Z,-2.81
2019-01-04T17:20:21.175Z,-2.93
2019-01-04T17:22:51.891Z,-2.94
2019-01-04T17:25:22.491Z,-2.81
2019-01-04T17:27:52.790Z,-2.93
2019-01-04T17:30:23.720Z,-2.94
2019-01-04T17:32:54.270Z,-2.98
2019-01-04T17:35:24.554Z,-2.98
2019-01-04T17:37:55.240Z,-3.16
2019-01-04T17:40:25.773Z,-3.25
2019-01-04T17:42:56.062Z,-3.27
2019-01-04T17:45:27.384Z,-3.39
2019-01-04T17:47:57.801Z,-3.26
2019-01-04T17:50:28.258Z,-3.10
2019-01-04T17:52:58.978Z,-3.39
2019-01-04T17:55:29.354Z,-3.54
2019-01-04T17:57:59.648Z,-3.60
2019-01-04T18:00:30.459Z,-3.65
2019-01-04T18:03:01.100Z,-3.57
2019-01-04T18:05:32.351Z,-3.52
2019-01-04T18:08:04.001Z,-3.53
2019-01-04T18:10:34.384Z,-3.50
2019-01-04T18:13:04.804Z,-3.40
2019-01-04T18:15:35.382Z,-3.28
2019-01-04T18:18:05.762Z,-3.16
2019-01-04T18:20:36.186Z,-3.14
2019-01-04T18:23:06.938Z,-2.99
2019-01-04T18:25:37.610Z,-3.01
2019-01-04T18:28:07.952Z,-3.04
2019-01-04T18:30:38.407Z,-3.25
2019-01-04T18:33:08.811Z,-3.14
2019-01-04T18:35:41.232Z,-3.28
2019-01-04T18:38:12.574Z,-3.31
2019-01-04T18:40:43.258Z,-3.19
2019-01-04T18:43:13.570Z,-3.24
2019-01-04T18:45:43.912Z,-2.86
2019-01-04T18:48:14.488Z,-3.08
2019-01-04T18:50:44.880Z,-3.02
2019-01-04T18:53:15.180Z,-3.09
2019-01-04T18:55:45.915Z,-2.88
2019-01-04T18:58:16.257Z,-2.86
2019-01-04T19:00:46.648Z,-2.71
2019-01-04T19:03:16.988Z,-2.85
2019-01-04T19:05:47.288Z,-2.68
2019-01-04T19:08:18.002Z,-2.49
2019-01-04T19:10:48.538Z,-3.25
2019-01-04T19:13:18.943Z,-3.20
2019-01-04T19:15:49.742Z,-3.17
2019-01-04T19:18:20.368Z,-2.81
2019-01-04T19:20:50.768Z,-2.67
2019-01-04T19:23:21.803Z,-2.74
2019-01-04T19:25:52.458Z,-2.89
2019-01-04T19:28:23.149Z,-2.99
2019-01-04T19:30:53.675Z,-3.06
2019-01-04T19:33:24.023Z,-2.82
2019-01-04T19:35:54.752Z,-2.77
2019-01-04T19:38:25.496Z,-2.82
2019-01-04T19:40:55.875Z,-2.82
2019-01-04T19:43:26.839Z,-2.82
2019-01-04T19:45:57.604Z,-2.91
2019-01-04T19:48:28.972Z,-2.94
2019-01-04T19:50:59.517Z,-2.78
2019-01-04T19:53:31.154Z,-3.28
2019-01-04T19:56:01.928Z,-3.74
2019-01-04T19:58:32.293Z,-3.68
2019-01-04T20:01:09.838Z,-3.80
2019-01-04T20:03:40.234Z,-3.84
2019-01-04T20:07:14.841Z,-4.02
2019-01-04T20:10:52.178Z,-4.27
2019-01-04T20:14:49.071Z,-4.60
2019-01-04T20:17:41.137Z,-4.68
2019-01-04T20:20:33.368Z,-4.54
2019-01-04T20:23:31.704Z,-4.52
2019-01-04T20:26:20.025Z,-4.67
2019-01-04T20:29:15.091Z,-4.60
2019-01-04T20:32:02.908Z,-4.56
2019-01-04T20:35:02.710Z,-4.77
2019-01-04T20:38:01.825Z,-4.74
2019-01-04T20:40:50.212Z,-4.62
2019-01-04T20:43:42.370Z,-4.68
2019-01-04T20:46:30.873Z,-4.71
2019-01-04T20:49:36.200Z,-4.46
2019-01-04T20:52:18.372Z,-4.54
2019-01-04T20:55:05.824Z,-4.53
2019-01-04T20:57:55.113Z,-4.54
2019-01-04T21:00:53.755Z,-4.49
2019-01-04T21:03:47.433Z,-4.57
2019-01-04T21:06:35.779Z,-5.25
2019-01-04T21:09:24.128Z,-5.03
2019-01-04T21:12:22.452Z,-4.96
2019-01-04T21:15:11.066Z,-5.05
2019-01-04T21:18:00.289Z,-4.68
2019-01-04T21:21:02.244Z,-4.89
2019-01-04T21:24:00.491Z,-4.91
2019-01-04T21:26:48.630Z,-5.21
2019-01-04T21:29:43.178Z,-5.06
2019-01-04T21:32:35.529Z,-5.15
2019-01-04T21:35:25.079Z,-5.08
2019-01-04T21:38:16.291Z,-5.01
2019-01-04T21:41:04.540Z,-5.01
2019-01-04T21:43:53.842Z,-4.87
2019-01-04T21:46:41.983Z,-4.74
2019-01-04T21:49:30.502Z,-4.93
2019-01-04T21:52:35.083Z,-5.05
2019-01-04T21:55:27.554Z,-4.93
2019-01-04T21:58:13.387Z,-4.92
2019-01-04T22:01:01.763Z,-5.13
2019-01-04T22:03:49.830Z,-4.65
2019-01-04T22:06:45.660Z,-4.66
2019-01-04T22:09:33.748Z,-4.89
2019-01-04T22:12:29.200Z,-5.13
2019-01-04T22:15:36.492Z,-4.91
2019-01-04T22:18:25.576Z,-4.68
2019-01-04T22:21:15.152Z,-4.68
2019-01-04T22:24:03.823Z,-4.76
2019-01-04T22:27:02.146Z,-5.07
2019-01-04T22:29:54.718Z,-4.84
2019-01-04T22:32:45.008Z,-4.49
2019-01-04T22:35:40.850Z,-4.55
2019-01-04T22:38:30.062Z,-4.53
2019-01-04T22:41:25.737Z,-4.84
2019-01-04T22:44:33.914Z,-4.79
2019-01-04T22:47:38.992Z,-4.83
2019-01-04T22:50:27.033Z,-4.67
2019-01-04T22:53:23.641Z,-4.58
2019-01-04T22:56:13.327Z,-4.84
2019-01-04T22:59:01.473Z,-4.65
2019-01-04T23:01:57.058Z,-5.14
2019-01-04T23:04:45.671Z,-4.86
2019-01-04T23:07:34.895Z,-4.92
2019-01-04T23:10:43.063Z,-4.92
2019-01-04T23:13:23.084Z,-4.87
2019-01-04T23:16:11.323Z,-4.80
2019-01-04T23:19:07.095Z,-4.90
2019-01-04T23:22:29.142Z,-4.68
2019-01-04T23:25:24.405Z,-4.84
2019-01-04T23:28:13.702Z,-5.09
2019-01-04T23:31:03.262Z,-4.89
2019-01-04T23:34:08.385Z,-4.72
2019-01-04T23:37:02.958Z,-4.84
2019-01-04T23:39:51.617Z,-4.88
2019-01-04T23:42:56.378Z,-4.77
2019-01-04T23:45:44.732Z,-4.80
2019-01-04T23:48:52.548Z,-4.51
2019-01-04T23:51:42.060Z,-4.53
2019-01-04T23:54:28.373Z,-4.45
2019-01-04T23:57:23.709Z,-4.27
